sensor_id;sensor_type;location;lat;lon;timestamp;pressure;altitude;pressure_sealevel;temperature;humidity
51123;BME280;37162;41.724;13.346;2023-04-06T00:01:12;96492.47;;;16.72;58.58
51123;BME280;37162;41.724;13.346;2023-04-06T00:03:37;96481.03;;;16.65;58.61
51123;BME280;37162;41.724;13.346;2023-04-06T00:06:03;96506.72;;;16.72;58.56
51123;BME280;37162;41.724;13.346;2023-04-06T00:08:29;96498.66;;;16.72;58.58
51123;BME280;37162;41.724;13.346;2023-04-06T00:10:54;96492.34;;;16.67;58.74
51123;BME280;37162;41.724;13.346;2023-04-06T00:13:20;96504.03;;;16.72;58.77
51123;BME280;37162;41.724;13.346;2023-04-06T00:15:46;96502.38;;;16.71;58.58
51123;BME280;37162;41.724;13.346;2023-04-06T00:18:11;96498.06;;;16.70;58.77
51123;BME280;37162;41.724;13.346;2023-04-06T00:20:37;96487.44;;;16.64;58.62
51123;BME280;37162;41.724;13.346;2023-04-06T00:23:03;96492.91;;;16.69;58.62
51123;BME280;37162;41.724;13.346;2023-04-06T00:25:28;96506.72;;;16.72;58.92
51123;BME280;37162;41.724;13.346;2023-04-06T00:27:53;96508.34;;;16.73;58.75
51123;BME280;37162;41.724;13.346;2023-04-06T00:30:19;96509.38;;;16.72;58.95
51123;BME280;37162;41.724;13.346;2023-04-06T00:32:45;96509.38;;;16.72;58.88
51123;BME280;37162;41.724;13.346;2023-04-06T00:35:10;96514.75;;;16.72;58.72
51123;BME280;37162;41.724;13.346;2023-04-06T00:37:36;96489.06;;;16.65;58.71
51123;BME280;37162;41.724;13.346;2023-04-06T00:40:01;96508.34;;;16.73;58.69
51123;BME280;37162;41.724;13.346;2023-04-06T00:42:27;96485.81;;;16.63;58.46
51123;BME280;37162;41.724;13.346;2023-04-06T00:44:57;96492.34;;;16.67;58.34
51123;BME280;37162;41.724;13.346;2023-04-06T00:47:23;96500.53;;;16.72;58.24
51123;BME280;37162;41.724;13.346;2023-04-06T00:49:50;96506.72;;;16.72;58.64
51123;BME280;37162;41.724;13.346;2023-04-06T00:52:17;96504.03;;;16.72;59.01
51123;BME280;37162;41.724;13.346;2023-04-06T00:54:42;96497.13;;;16.65;59.34
51123;BME280;37162;41.724;13.346;2023-04-06T00:57:08;96514.97;;;16.71;59.22
51123;BME280;37162;41.724;13.346;2023-04-06T00:59:34;96513.31;;;16.70;59.58
51123;BME280;37162;41.724;13.346;2023-04-06T01:02:00;96492.16;;;16.56;59.19
51123;BME280;37162;41.724;13.346;2023-04-06T01:04:26;96511.94;;;16.67;58.93
51123;BME280;37162;41.724;13.346;2023-04-06T01:06:52;96508.44;;;16.67;58.93
51123;BME280;37162;41.724;13.346;2023-04-06T01:09:17;96509.25;;;16.67;58.73
51123;BME280;37162;41.724;13.346;2023-04-06T01:11:43;96504.34;;;16.64;58.60
51123;BME280;37162;41.724;13.346;2023-04-06T01:14:09;96499.59;;;16.66;58.74
51123;BME280;37162;41.724;13.346;2023-04-06T01:16:35;96504.94;;;16.66;58.87
51123;BME280;37162;41.724;13.346;2023-04-06T01:19:01;96502.28;;;16.66;59.06
51123;BME280;37162;41.724;13.346;2023-04-06T01:21:31;96509.25;;;16.67;59.23
51123;BME280;37162;41.724;13.346;2023-04-06T01:23:57;96496.91;;;16.66;59.56
51123;BME280;37162;41.724;13.346;2023-04-06T01:26:22;96494.22;;;16.66;59.35
51123;BME280;37162;41.724;13.346;2023-04-06T01:28:48;96493.41;;;16.66;59.01
51123;BME280;37162;41.724;13.346;2023-04-06T01:31:13;96497.72;;;16.67;58.70
51123;BME280;37162;41.724;13.346;2023-04-06T01:33:38;96496.91;;;16.66;58.57
51123;BME280;37162;41.724;13.346;2023-04-06T01:36:04;96472.78;;;16.54;58.83
51123;BME280;37162;41.724;13.346;2023-04-06T01:38:30;96496.66;;;16.68;58.82
51123;BME280;37162;41.724;13.346;2023-04-06T01:40:56;96493.16;;;16.67;58.49
51123;BME280;37162;41.724;13.346;2023-04-06T01:43:21;96494.22;;;16.66;58.64
51123;BME280;37162;41.724;13.346;2023-04-06T01:45:47;96497.72;;;16.67;58.68
51123;BME280;37162;41.724;13.346;2023-04-06T01:48:12;96491.53;;;16.66;58.92
51123;BME280;37162;41.724;13.346;2023-04-06T01:50:38;96487.22;;;16.65;58.83
51123;BME280;37162;41.724;13.346;2023-04-06T01:53:03;96491.53;;;16.66;58.47
51123;BME280;37162;41.724;13.346;2023-04-06T01:55:29;96491.53;;;16.66;58.54
51123;BME280;37162;41.724;13.346;2023-04-06T01:57:54;96499.59;;;16.66;58.49
51123;BME280;37162;41.724;13.346;2023-04-06T02:00:20;96491.53;;;16.66;58.54
51123;BME280;37162;41.724;13.346;2023-04-06T02:02:45;96493.41;;;16.66;58.34
51123;BME280;37162;41.724;13.346;2023-04-06T02:05:11;96488.84;;;16.66;58.56
51123;BME280;37162;41.724;13.346;2023-04-06T02:07:36;96489.88;;;16.65;58.58
51123;BME280;37162;41.724;13.346;2023-04-06T02:10:02;96488.03;;;16.66;58.43
51123;BME280;37162;41.724;13.346;2023-04-06T02:12:28;96485.38;;;16.66;58.71
51123;BME280;37162;41.724;13.346;2023-04-06T02:14:53;96491.53;;;16.66;58.70
51123;BME280;37162;41.724;13.346;2023-04-06T02:17:18;96484.31;;;16.67;58.66
51123;BME280;37162;41.724;13.346;2023-04-06T02:19:44;96480.00;;;16.66;58.47
51123;BME280;37162;41.724;13.346;2023-04-06T02:22:10;96488.63;;;16.68;58.93
51123;BME280;37162;41.724;13.346;2023-04-06T02:24:35;96487.56;;;16.69;59.00
51123;BME280;37162;41.724;13.346;2023-04-06T02:27:01;96487.56;;;16.69;59.04
51123;BME280;37162;41.724;13.346;2023-04-06T02:29:27;96484.06;;;16.68;58.94
51123;BME280;37162;41.724;13.346;2023-04-06T02:31:52;96478.69;;;16.68;58.84
51123;BME280;37162;41.724;13.346;2023-04-06T02:34:17;96478.69;;;16.68;58.62
51123;BME280;37162;41.724;13.346;2023-04-06T02:36:44;96477.88;;;16.68;58.60
51123;BME280;37162;41.724;13.346;2023-04-06T02:39:10;96464.38;;;16.63;58.58
51123;BME280;37162;41.724;13.346;2023-04-06T02:41:36;96472.53;;;16.68;58.51
51123;BME280;37162;41.724;13.346;2023-04-06T02:44:02;96475.19;;;16.68;58.55
51123;BME280;37162;41.724;13.346;2023-04-06T02:46:27;96477.06;;;16.67;58.58
51123;BME280;37162;41.724;13.346;2023-04-06T02:48:53;96472.53;;;16.68;58.36
51123;BME280;37162;41.724;13.346;2023-04-06T02:51:18;96460.16;;;16.67;58.59
51123;BME280;37162;41.724;13.346;2023-04-06T02:53:44;96470.91;;;16.67;58.36
51123;BME280;37162;41.724;13.346;2023-04-06T02:56:09;96465.53;;;16.67;58.54
51123;BME280;37162;41.724;13.346;2023-04-06T02:58:35;96460.16;;;16.67;58.35
51123;BME280;37162;41.724;13.346;2023-04-06T03:01:00;96453.19;;;16.66;58.49
51123;BME280;37162;41.724;13.346;2023-04-06T03:03:25;96457.13;;;16.63;58.49
51123;BME280;37162;41.724;13.346;2023-04-06T03:05:51;96466.81;;;16.64;58.43
51123;BME280;37162;41.724;13.346;2023-04-06T03:08:16;96458.75;;;16.64;58.30
51123;BME280;37162;41.724;13.346;2023-04-06T03:10:42;96459.56;;;16.65;58.75
51123;BME280;37162;41.724;13.346;2023-04-06T03:13:07;96464.94;;;16.65;58.40
51123;BME280;37162;41.724;13.346;2023-04-06T03:15:33;96467.63;;;16.65;58.43
51123;BME280;37162;41.724;13.346;2023-04-06T03:17:58;96467.63;;;16.65;58.72
51123;BME280;37162;41.724;13.346;2023-04-06T03:20:24;96462.50;;;16.63;58.51
51123;BME280;37162;41.724;13.346;2023-04-06T03:22:49;96460.63;;;16.64;58.32
51123;BME280;37162;41.724;13.346;2023-04-06T03:25:15;96455.25;;;16.64;58.63
51123;BME280;37162;41.724;13.346;2023-04-06T03:27:40;96457.94;;;16.64;58.81
51123;BME280;37162;41.724;13.346;2023-04-06T03:30:06;96466.00;;;16.64;59.21
51123;BME280;37162;41.724;13.346;2023-04-06T03:32:31;96461.44;;;16.64;59.29
51123;BME280;37162;41.724;13.346;2023-04-06T03:34:57;96456.31;;;16.63;59.55
51123;BME280;37162;41.724;13.346;2023-04-06T03:37:22;96460.06;;;16.61;59.39
51123;BME280;37162;41.724;13.346;2023-04-06T03:39:48;96454.00;;;16.54;59.23
51123;BME280;37162;41.724;13.346;2023-04-06T03:42:13;96471.00;;;16.60;58.87
51123;BME280;37162;41.724;13.346;2023-04-06T03:44:38;96467.75;;;16.58;58.82
51123;BME280;37162;41.724;13.346;2023-04-06T03:47:04;96475.00;;;16.57;58.89
51123;BME280;37162;41.724;13.346;2023-04-06T03:49:30;96468.81;;;16.57;58.79
51123;BME280;37162;41.724;13.346;2023-04-06T03:51:56;96471.50;;;16.57;59.07
51123;BME280;37162;41.724;13.346;2023-04-06T03:54:21;96467.41;;;16.54;59.50
51123;BME280;37162;41.724;13.346;2023-04-06T03:56:47;96477.44;;;16.59;60.42
51123;BME280;37162;41.724;13.346;2023-04-06T03:59:12;96464.88;;;16.48;59.12
51123;BME280;37162;41.724;13.346;2023-04-06T04:01:38;96478.97;;;16.55;58.77
51123;BME280;37162;41.724;13.346;2023-04-06T04:04:04;96473.84;;;16.53;58.59
51123;BME280;37162;41.724;13.346;2023-04-06T04:06:30;96479.78;;;16.55;58.38
51123;BME280;37162;41.724;13.346;2023-04-06T04:08:55;96484.09;;;16.56;58.53
51123;BME280;37162;41.724;13.346;2023-04-06T04:11:21;96482.22;;;16.57;58.74
51123;BME280;37162;41.724;13.346;2023-04-06T04:13:46;96485.72;;;16.57;58.94
51123;BME280;37162;41.724;13.346;2023-04-06T04:16:12;96494.59;;;16.58;58.89
51123;BME280;37162;41.724;13.346;2023-04-06T04:18:37;96497.28;;;16.58;58.94
51123;BME280;37162;41.724;13.346;2023-04-06T04:21:03;96500.75;;;16.58;58.89
51123;BME280;37162;41.724;13.346;2023-04-06T04:23:28;96492.72;;;16.58;58.76
51123;BME280;37162;41.724;13.346;2023-04-06T04:25:54;96496.44;;;16.57;58.53
51123;BME280;37162;41.724;13.346;2023-04-06T04:28:19;96508.81;;;16.58;58.55
51123;BME280;37162;41.724;13.346;2023-04-06T04:30:45;96506.94;;;16.59;58.57
51123;BME280;37162;41.724;13.346;2023-04-06T04:33:11;96512.31;;;16.59;58.47
51123;BME280;37162;41.724;13.346;2023-04-06T04:35:36;96510.69;;;16.58;58.35
51123;BME280;37162;41.724;13.346;2023-04-06T04:38:02;96505.22;;;16.53;58.50
51123;BME280;37162;41.724;13.346;2023-04-06T04:40:27;96508.00;;;16.58;58.30
51123;BME280;37162;41.724;13.346;2023-04-06T04:42:53;96517.09;;;16.57;58.48
51123;BME280;37162;41.724;13.346;2023-04-06T04:45:18;96516.28;;;16.56;58.23
51123;BME280;37162;41.724;13.346;2023-04-06T04:47:44;96509.88;;;16.57;58.41
51123;BME280;37162;41.724;13.346;2023-04-06T04:50:09;96510.94;;;16.56;58.40
51123;BME280;37162;41.724;13.346;2023-04-06T04:52:36;96514.41;;;16.57;58.31
51123;BME280;37162;41.724;13.346;2023-04-06T04:55:01;96513.59;;;16.56;58.31
51123;BME280;37162;41.724;13.346;2023-04-06T04:57:27;96514.63;;;16.55;58.21
51123;BME280;37162;41.724;13.346;2023-04-06T04:59:52;96503.22;;;16.48;58.12
51123;BME280;37162;41.724;13.346;2023-04-06T05:02:27;96513.81;;;16.55;58.11
51123;BME280;37162;41.724;13.346;2023-04-06T05:04:52;96522.69;;;16.55;57.84
51123;BME280;37162;41.724;13.346;2023-04-06T05:07:18;96518.63;;;16.53;57.62
51123;BME280;37162;41.724;13.346;2023-04-06T05:09:45;96520.38;;;16.47;55.86
51123;BME280;37162;41.724;13.346;2023-04-06T05:12:10;96526.44;;;16.43;54.23
51123;BME280;37162;41.724;13.346;2023-04-06T05:14:36;96528.19;;;16.37;53.08
51123;BME280;37162;41.724;13.346;2023-04-06T05:17:02;96518.66;;;16.29;50.96
51123;BME280;37162;41.724;13.346;2023-04-06T05:19:27;96505.72;;;16.15;50.49
51123;BME280;37162;41.724;13.346;2023-04-06T05:21:52;96524.25;;;16.16;49.67
51123;BME280;37162;41.724;13.346;2023-04-06T05:24:18;96516.09;;;16.11;50.37
51123;BME280;37162;41.724;13.346;2023-04-06T05:26:43;96522.25;;;16.12;50.55
51123;BME280;37162;41.724;13.346;2023-04-06T05:29:10;96523.31;;;16.10;50.89
51123;BME280;37162;41.724;13.346;2023-04-06T05:31:36;96528.69;;;16.10;51.05
51123;BME280;37162;41.724;13.346;2023-04-06T05:34:01;96524.94;;;16.12;51.36
51123;BME280;37162;41.724;13.346;2023-04-06T05:36:27;96524.69;;;16.13;52.79
51123;BME280;37162;41.724;13.346;2023-04-06T05:38:52;96525.28;;;16.15;53.55
51123;BME280;37162;41.724;13.346;2023-04-06T05:41:18;96529.59;;;16.16;54.02
51123;BME280;37162;41.724;13.346;2023-04-06T05:43:44;96532.28;;;16.16;54.58
51123;BME280;37162;41.724;13.346;2023-04-06T05:46:10;96537.63;;;16.16;54.88
51123;BME280;37162;41.724;13.346;2023-04-06T05:48:35;96535.41;;;16.13;54.95
51123;BME280;37162;41.724;13.346;2023-04-06T05:51:01;96534.97;;;16.16;55.33
51123;BME280;37162;41.724;13.346;2023-04-06T05:53:27;96534.97;;;16.16;55.41
51123;BME280;37162;41.724;13.346;2023-04-06T05:55:54;96540.06;;;16.18;55.70
51123;BME280;37162;41.724;13.346;2023-04-06T05:58:19;96533.91;;;16.17;55.32
51123;BME280;37162;41.724;13.346;2023-04-06T06:00:45;96534.50;;;16.19;56.11
51123;BME280;37162;41.724;13.346;2023-04-06T06:03:12;96541.50;;;16.20;55.75
51123;BME280;37162;41.724;13.346;2023-04-06T06:05:37;96543.13;;;16.21;55.95
51123;BME280;37162;41.724;13.346;2023-04-06T06:08:02;96538.56;;;16.22;55.77
51123;BME280;37162;41.724;13.346;2023-04-06T06:10:28;96550.91;;;16.23;54.96
51123;BME280;37162;41.724;13.346;2023-04-06T06:12:53;96547.22;;;16.24;55.21
51123;BME280;37162;41.724;13.346;2023-04-06T06:15:19;96545.09;;;16.26;55.35
51123;BME280;37162;41.724;13.346;2023-04-06T06:17:44;96543.22;;;16.26;55.66
51123;BME280;37162;41.724;13.346;2023-04-06T06:20:10;96553.75;;;16.28;55.75
51123;BME280;37162;41.724;13.346;2023-04-06T06:22:36;96544.63;;;16.29;55.88
51123;BME280;37162;41.724;13.346;2023-04-06T06:25:04;96548.94;;;16.30;56.21
51123;BME280;37162;41.724;13.346;2023-04-06T06:27:30;96549.75;;;16.30;56.47
51123;BME280;37162;41.724;13.346;2023-04-06T06:29:55;96548.94;;;16.30;56.10
51123;BME280;37162;41.724;13.346;2023-04-06T06:32:21;96550.56;;;16.31;56.27
51123;BME280;37162;41.724;13.346;2023-04-06T06:34:46;96555.94;;;16.31;56.30
51123;BME280;37162;41.724;13.346;2023-04-06T06:37:12;96548.69;;;16.31;56.53
51123;BME280;37162;41.724;13.346;2023-04-06T06:39:38;96550.31;;;16.32;56.32
51123;BME280;37162;41.724;13.346;2023-04-06T06:42:03;96543.47;;;16.25;56.17
51123;BME280;37162;41.724;13.346;2023-04-06T06:44:28;96556.53;;;16.33;56.35
51123;BME280;37162;41.724;13.346;2023-04-06T06:46:54;96556.53;;;16.33;56.67
51123;BME280;37162;41.724;13.346;2023-04-06T06:49:19;96560.84;;;16.34;56.80
51123;BME280;37162;41.724;13.346;2023-04-06T06:51:45;96566.19;;;16.34;56.47
51123;BME280;37162;41.724;13.346;2023-04-06T06:54:11;96567.25;;;16.33;56.54
51123;BME280;37162;41.724;13.346;2023-04-06T06:56:38;96563.53;;;16.34;56.72
51123;BME280;37162;41.724;13.346;2023-04-06T06:59:04;96562.47;;;16.35;56.45
51123;BME280;37162;41.724;13.346;2023-04-06T07:01:31;96571.31;;;16.35;56.62
51123;BME280;37162;41.724;13.346;2023-04-06T07:03:57;96568.63;;;16.35;56.46
51123;BME280;37162;41.724;13.346;2023-04-06T07:06:22;96557.81;;;16.30;56.36
51123;BME280;37162;41.724;13.346;2023-04-06T07:08:48;96575.41;;;16.38;56.31
51123;BME280;37162;41.724;13.346;2023-04-06T07:11:13;96573.53;;;16.39;56.56
51123;BME280;37162;41.724;13.346;2023-04-06T07:13:39;96570.63;;;16.40;56.41
51123;BME280;37162;41.724;13.346;2023-04-06T07:16:04;96574.94;;;16.41;56.56
51123;BME280;37162;41.724;13.346;2023-04-06T07:18:30;96572.03;;;16.43;56.37
51123;BME280;37162;41.724;13.346;2023-04-06T07:20:55;96578.19;;;16.43;56.31
51123;BME280;37162;41.724;13.346;2023-04-06T07:23:21;96572.03;;;16.43;56.18
51123;BME280;37162;41.724;13.346;2023-04-06T07:25:46;96574.72;;;16.43;56.24
51123;BME280;37162;41.724;13.346;2023-04-06T07:28:12;96582.28;;;16.46;56.24
51123;BME280;37162;41.724;13.346;2023-04-06T07:30:38;96582.06;;;16.47;56.12
51123;BME280;37162;41.724;13.346;2023-04-06T07:33:04;96581.00;;;16.48;56.13
51123;BME280;37162;41.724;13.346;2023-04-06T07:35:30;96587.19;;;16.49;56.29
51123;BME280;37162;41.724;13.346;2023-04-06T07:37:56;96586.13;;;16.50;56.20
51123;BME280;37162;41.724;13.346;2023-04-06T07:40:22;96586.72;;;16.52;55.95
51123;BME280;37162;41.724;13.346;2023-04-06T07:42:47;96591.84;;;16.53;56.17
51123;BME280;37162;41.724;13.346;2023-04-06T07:45:13;96586.47;;;16.53;56.24
51123;BME280;37162;41.724;13.346;2023-04-06T07:47:39;96591.03;;;16.53;55.58
51123;BME280;37162;41.724;13.346;2023-04-06T07:50:04;96596.38;;;16.53;55.59
51123;BME280;37162;41.724;13.346;2023-04-06T07:52:30;96596.16;;;16.54;55.87
51123;BME280;37162;41.724;13.346;2023-04-06T07:54:57;96597.78;;;16.55;56.08
51123;BME280;37162;41.724;13.346;2023-04-06T07:57:23;96602.91;;;16.57;55.92
51123;BME280;37162;41.724;13.346;2023-04-06T07:59:49;96598.38;;;16.57;55.95
51123;BME280;37162;41.724;13.346;2023-04-06T08:02:14;96604.53;;;16.58;55.88
51123;BME280;37162;41.724;13.346;2023-04-06T08:04:40;96610.47;;;16.60;55.27
51123;BME280;37162;41.724;13.346;2023-04-06T08:07:05;96603.94;;;16.56;55.59
51123;BME280;37162;41.724;13.346;2023-04-06T08:09:31;96614.31;;;16.64;55.50
51123;BME280;37162;41.724;13.346;2023-04-06T08:11:57;96614.13;;;16.66;55.59
51123;BME280;37162;41.724;13.346;2023-04-06T08:14:22;96605.13;;;16.60;55.76
51123;BME280;37162;41.724;13.346;2023-04-06T08:16:48;96625.97;;;16.70;55.81
51123;BME280;37162;41.724;13.346;2023-04-06T08:19:13;96624.75;;;16.72;55.39
51123;BME280;37162;41.724;13.346;2023-04-06T08:21:42;96621.00;;;16.73;54.71
51123;BME280;37162;41.724;13.346;2023-04-06T08:24:08;96619.00;;;16.69;53.99
51123;BME280;37162;41.724;13.346;2023-04-06T08:26:33;96630.22;;;16.77;53.71
51123;BME280;37162;41.724;13.346;2023-04-06T08:28:58;96629.97;;;16.79;53.36
51123;BME280;37162;41.724;13.346;2023-04-06T08:31:24;96625.78;;;16.83;53.43
51123;BME280;37162;41.724;13.346;2023-04-06T08:33:49;96624.50;;;16.85;53.67
51123;BME280;37162;41.724;13.346;2023-04-06T08:36:15;96632.31;;;16.87;53.62
51123;BME280;37162;41.724;13.346;2023-04-06T08:38:41;96625.66;;;16.90;53.70
51123;BME280;37162;41.724;13.346;2023-04-06T08:41:12;96635.09;;;16.92;53.83
51123;BME280;37162;41.724;13.346;2023-04-06T08:43:44;96635.69;;;16.94;53.85
51123;BME280;37162;41.724;13.346;2023-04-06T08:46:12;96635.44;;;16.96;53.92
51123;BME280;37162;41.724;13.346;2023-04-06T08:48:41;96635.00;;;16.99;54.04
51123;BME280;37162;41.724;13.346;2023-04-06T08:51:11;96623.91;;;16.95;54.18
51123;BME280;37162;41.724;13.346;2023-04-06T08:53:37;96640.69;;;17.02;54.24
51123;BME280;37162;41.724;13.346;2023-04-06T08:56:03;96640.47;;;17.04;54.60
51123;BME280;37162;41.724;13.346;2023-04-06T08:58:34;96648.25;;;17.05;54.40
51123;BME280;37162;41.724;13.346;2023-04-06T09:01:01;96647.81;;;17.08;54.42
51123;BME280;37162;41.724;13.346;2023-04-06T09:03:28;96648.38;;;17.10;54.36
51123;BME280;37162;41.724;13.346;2023-04-06T09:05:55;96634.69;;;17.12;54.79
51123;BME280;37162;41.724;13.346;2023-04-06T09:08:21;96638.78;;;17.15;54.58
51123;BME280;37162;41.724;13.346;2023-04-06T09:10:47;96643.69;;;17.18;54.56
51123;BME280;37162;41.724;13.346;2023-04-06T09:13:14;96646.13;;;17.19;54.07
51123;BME280;37162;41.724;13.346;2023-04-06T09:15:39;96642.16;;;17.22;53.95
51123;BME280;37162;41.724;13.346;2023-04-06T09:18:05;96655.09;;;17.25;54.04
51123;BME280;37162;41.724;13.346;2023-04-06T09:20:30;96648.47;;;17.27;54.02
51123;BME280;37162;41.724;13.346;2023-04-06T09:22:56;96650.66;;;17.30;54.04
51123;BME280;37162;41.724;13.346;2023-04-06T09:25:23;96648.56;;;17.32;54.24
51123;BME280;37162;41.724;13.346;2023-04-06T09:28:03;96639.91;;;17.30;53.97
51123;BME280;37162;41.724;13.346;2023-04-06T09:30:29;96648.66;;;17.37;53.82
51123;BME280;37162;41.724;13.346;2023-04-06T09:32:56;96642.22;;;17.38;53.97
51123;BME280;37162;41.724;13.346;2023-04-06T09:35:23;96648.16;;;17.41;54.00
51123;BME280;37162;41.724;13.346;2023-04-06T09:37:50;96648.75;;;17.43;53.86
51123;BME280;37162;41.724;13.346;2023-04-06T09:40:17;96649.31;;;17.45;54.06
51123;BME280;37162;41.724;13.346;2023-04-06T09:42:47;96646.41;;;17.46;53.91
51123;BME280;37162;41.724;13.346;2023-04-06T09:45:13;96658.53;;;17.49;53.87
51123;BME280;37162;41.724;13.346;2023-04-06T09:47:44;96659.13;;;17.51;53.94
51123;BME280;37162;41.724;13.346;2023-04-06T09:50:12;96653.75;;;17.51;53.28
51123;BME280;37162;41.724;13.346;2023-04-06T09:52:46;96652.44;;;17.53;53.36
51123;BME280;37162;41.724;13.346;2023-04-06T09:55:20;96644.88;;;17.50;52.99
51123;BME280;37162;41.724;13.346;2023-04-06T09:58:04;96643.69;;;17.58;53.33
51123;BME280;37162;41.724;13.346;2023-04-06T10:00:31;96640.75;;;17.59;53.38
51123;BME280;37162;41.724;13.346;2023-04-06T10:07:56;96646.97;;;17.60;53.54
51123;BME280;37162;41.724;13.346;2023-04-06T10:10:22;96637.94;;;17.66;53.55
51123;BME280;37162;41.724;13.346;2023-04-06T10:12:48;96638.41;;;17.63;53.06
51123;BME280;37162;41.724;13.346;2023-04-06T10:15:15;96630.22;;;17.70;52.90
51123;BME280;37162;41.724;13.346;2023-04-06T10:17:40;96639.09;;;17.70;52.89
51123;BME280;37162;41.724;13.346;2023-04-06T10:20:17;96639.47;;;17.74;52.62
51123;BME280;37162;41.724;13.346;2023-04-06T10:25:31;96626.59;;;17.76;53.20
51123;BME280;37162;41.724;13.346;2023-04-06T10:28:04;96637.06;;;17.77;53.42
51123;BME280;37162;41.724;13.346;2023-04-06T10:30:30;96629.59;;;17.79;53.15
51123;BME280;37162;41.724;13.346;2023-04-06T10:32:56;96637.41;;;17.81;53.50
51123;BME280;37162;41.724;13.346;2023-04-06T10:35:22;96633.66;;;17.82;53.54
51123;BME280;37162;41.724;13.346;2023-04-06T10:37:52;96634.25;;;17.84;53.46
51123;BME280;37162;41.724;13.346;2023-04-06T10:40:20;96632.38;;;17.84;53.54
51123;BME280;37162;41.724;13.346;2023-04-06T10:42:46;96612.69;;;17.79;53.83
51123;BME280;37162;41.724;13.346;2023-04-06T10:45:23;96625.38;;;17.83;53.82
51123;BME280;37162;41.724;13.346;2023-04-06T10:47:53;96606.38;;;17.73;54.06
51123;BME280;37162;41.724;13.346;2023-04-06T10:50:19;96614.31;;;17.80;53.41
51123;BME280;37162;41.724;13.346;2023-04-06T10:52:45;96616.19;;;17.79;53.55
51123;BME280;37162;41.724;13.346;2023-04-06T10:55:14;96616.72;;;17.81;53.30
51123;BME280;37162;41.724;13.346;2023-04-06T10:57:40;96606.38;;;17.73;53.44
51123;BME280;37162;41.724;13.346;2023-04-06T11:00:08;96614.84;;;17.82;53.58
51123;BME280;37162;41.724;13.346;2023-04-06T11:02:36;96604.38;;;17.80;53.55
51123;BME280;37162;41.724;13.346;2023-04-06T11:05:03;96607.13;;;17.85;53.78
51123;BME280;37162;41.724;13.346;2023-04-06T11:07:29;96609.56;;;17.87;53.92
51123;BME280;37162;41.724;13.346;2023-04-06T11:09:56;96616.34;;;17.90;53.77
51123;BME280;37162;41.724;13.346;2023-04-06T11:12:26;96613.66;;;17.90;53.73
51123;BME280;37162;41.724;13.346;2023-04-06T11:14:57;96589.06;;;17.81;53.69
51123;BME280;37162;41.724;13.346;2023-04-06T11:17:31;96609.44;;;17.94;53.50
51123;BME280;37162;41.724;13.346;2023-04-06T11:19:57;96610.00;;;17.96;53.29
51123;BME280;37162;41.724;13.346;2023-04-06T11:22:24;96602.75;;;17.96;53.32
51123;BME280;37162;41.724;13.346;2023-04-06T11:24:50;96599.84;;;17.98;53.25
51123;BME280;37162;41.724;13.346;2023-04-06T11:27:17;96604.63;;;17.96;53.20
51123;BME280;37162;41.724;13.346;2023-04-06T11:29:43;96591.69;;;17.93;53.33
51123;BME280;37162;41.724;13.346;2023-04-06T11:32:11;96598.09;;;17.92;53.16
51123;BME280;37162;41.724;13.346;2023-04-06T11:34:38;96597.53;;;17.90;53.09
51123;BME280;37162;41.724;13.346;2023-04-06T11:37:09;96595.09;;;17.88;53.04
51123;BME280;37162;41.724;13.346;2023-04-06T11:39:49;96592.63;;;17.86;53.26
51123;BME280;37162;41.724;13.346;2023-04-06T11:42:27;96591.81;;;17.86;53.23
51123;BME280;37162;41.724;13.346;2023-04-06T11:44:57;96591.25;;;17.84;53.35
51123;BME280;37162;41.724;13.346;2023-04-06T11:47:36;96592.56;;;17.81;53.34
51123;BME280;37162;41.724;13.346;2023-04-06T11:50:13;96594.09;;;17.77;52.98
51123;BME280;37162;41.724;13.346;2023-04-06T11:52:40;96589.22;;;17.74;52.75
51123;BME280;37162;41.724;13.346;2023-04-06T11:55:14;96586.16;;;17.71;52.56
51123;BME280;37162;41.724;13.346;2023-04-06T11:57:41;96584.53;;;17.70;52.04
51123;BME280;37162;41.724;13.346;2023-04-06T12:00:08;96578.91;;;17.71;52.14
51123;BME280;37162;41.724;13.346;2023-04-06T12:02:37;96577.03;;;17.72;52.06
51123;BME280;37162;41.724;13.346;2023-04-06T12:05:04;96585.91;;;17.72;52.75
51123;BME280;37162;41.724;13.346;2023-04-06T12:07:31;96578.47;;;17.74;52.87
51123;BME280;37162;41.724;13.346;2023-04-06T12:09:58;96570.97;;;17.76;53.01
51123;BME280;37162;41.724;13.346;2023-04-06T12:12:24;96577.75;;;17.79;53.30
51123;BME280;37162;41.724;13.346;2023-04-06T12:14:49;96568.63;;;17.80;53.12
51123;BME280;37162;41.724;13.346;2023-04-06T12:17:15;96580.19;;;17.80;53.39
51123;BME280;37162;41.724;13.346;2023-04-06T12:19:40;96571.63;;;17.83;53.38
51123;BME280;37162;41.724;13.346;2023-04-06T12:22:05;96574.31;;;17.83;53.55
51123;BME280;37162;41.724;13.346;2023-04-06T12:24:31;96564.88;;;17.81;53.80
51123;BME280;37162;41.724;13.346;2023-04-06T12:26:56;96562.50;;;17.84;53.86
51123;BME280;37162;41.724;13.346;2023-04-06T12:29:24;96569.50;;;17.85;54.05
51123;BME280;37162;41.724;13.346;2023-04-06T12:31:50;96570.78;;;17.83;54.42
51123;BME280;37162;41.724;13.346;2023-04-06T12:34:16;96568.63;;;17.80;54.06
51123;BME280;37162;41.724;13.346;2023-04-06T12:36:41;96570.97;;;17.76;53.76
51123;BME280;37162;41.724;13.346;2023-04-06T12:39:07;96563.59;;;17.72;53.50
51123;BME280;37162;41.724;13.346;2023-04-06T12:41:32;96554.66;;;17.66;53.01
51123;BME280;37162;41.724;13.346;2023-04-06T12:43:58;96555.94;;;17.63;52.90
51123;BME280;37162;41.724;13.346;2023-04-06T12:46:24;96558.78;;;17.57;52.60
51123;BME280;37162;41.724;13.346;2023-04-06T12:48:51;96563.91;;;17.58;51.89
51123;BME280;37162;41.724;13.346;2023-04-06T12:51:18;96557.38;;;17.54;51.23
51123;BME280;37162;41.724;13.346;2023-04-06T12:53:44;96557.88;;;17.51;50.26